PBM weather

Johan Adolf Pengel International Airport
Zandery, Para, Suriname

Public forecast

Using degrees Celsius for public forecast. Weather courtesy of forecast.io.

Current aviation weather report (METAR) for Johan Adolf Pengel International Airport

Retrieved 2019/12/12 13:00 UTC (18 minutes ago):

SMJP 121300Z 12008KT 9999 SCT015 27/24 Q1011 NOSIG

Aviation forecast (TAF) for Johan Adolf Pengel International Airport

Retrieved 2019/12/12 12:12 UTC (1 hour ago):

TAF TAF SMJP 121000Z 1212/1312 09010KT 9999 SCT020 TX30/1217Z TN23/1309Z TEMPO 1217/1221 VRB12G22KT 3000 SHRA FEW010CB SCT018 BECMG 1222/1300 06005KT FEW010 SCT030 PROB30 TEMPO 1309/1310 00000KT 1500 BR